Bruck an der Leitha, Austria
Current Conditions -  °F | °C
As of 4:20 PM on Wednesday 22 Oct 2014 (Local Time) from LOWW Reporting Station
Broken Clouds Broken Clouds  
Wind Chill: 40°   Ceiling: 5200
Heat Index: 46°   Visibility: 6mi
Dew Point: 39°   Wind: 16mph
Humidity: 76%   Direction: 300°WNW
Pressure: 29.74"   Gusts: NA
Location:  48.02°N, 16.78°E
Report Text: LOWW 221520Z 30014KT 9999 FEW034 BKN052 08/04 Q1007 NOSIG
Loading
Personal Weather Stations






























Interactive Weather Map
Tropical Storm Tracking
New forecast layout! Learn more

10-Day Weather Forecast

Advertisements
Track Severe Weather on mobile